Naniwamaru No.23 — JI3716 — position and weather

sailwx.info

Track history (hours):
 
Tides and Currents Weather Stations Pressure Air Temp Water Temp Dewpoint Dewpoint Depression Visibility Wind Speed Wind Dir Waves Ship Positions

Naniwamaru No.23

Last reported at 2018-Jan-22 17:57 UTC. Time now 2018-Jan-22 18:03 UTC.
Position N 33°48' E 132°28'.

Length 71 m; draft 4 m.

Type: Tanker. MMSI: 431301706.

Date/timePositionNaut miles runAvg speedWind from/ knotsBaromVisibWave heightAir tempDewpointWater temp
2018-Jan-22 17:57N 33°48' E 132°28'613.1
2018-Jan-22 17:28N 33°52' E 132°34'9611.4
2018-Jan-22 09:01N 34°25' E 134°23'012.7
2018-Jan-22 08:59N 34°25' E 134°23'612.7
2018-Jan-22 08:30N 34°28' E 134°30'612.5
2018-Jan-22 08:00N 34°30' E 134°37'612.5
2018-Jan-22 07:30N 34°32' E 134°44'612.7
2018-Jan-22 07:00N 34°35' E 134°51'612.1
2018-Jan-22 06:30N 34°37' E 134°58'611.2
2018-Jan-22 06:00N 34°35' E 135°04'612.2
2018-Jan-22 05:30N 34°29' E 135°04'612.9
2018-Jan-22 05:00N 34°23' E 135°02'612.9
2018-Jan-22 04:31N 34°17' E 134°59'612.7
2018-Jan-22 04:01N 34°12' E 135°03'611.5
2018-Jan-22 03:30N 34°07' E 135°07'0 0.2
2018-Jan-22 03:00N 34°07' E 135°07'0 0.0
2018-Jan-22 02:29N 34°07' E 135°07'0 0.0
2018-Jan-22 01:57N 34°07' E 135°07'0 0.0
2018-Jan-22 01:30N 34°07' E 135°07'0 0.0
2018-Jan-22 01:00N 34°07' E 135°07'0 0.3
2018-Jan-22 00:30N 34°07' E 135°07'2 3.4
2018-Jan-22 00:01N 34°08' E 135°06'0 0.0
2018-Jan-21 23:31N 34°08' E 135°06'0 0.0
2018-Jan-21 23:00N 34°08' E 135°06'0 0.0
2018-Jan-21 22:31N 34°08' E 135°06'0 0.0
2018-Jan-21 22:01N 34°08' E 135°06'0 0.1
2018-Jan-21 21:31N 34°08' E 135°06'5 9.8
2018-Jan-21 21:00N 34°08' E 135°00'713.2
2018-Jan-21 20:30N 34°08' E 134°52'713.4
2018-Jan-21 20:00N 34°10' E 134°44'714.0
2018-Jan-21 19:30N 34°15' E 134°39'713.2
2018-Jan-21 19:00N 34°18' E 134°31'713.8
2018-Jan-21 18:30N 34°20' E 134°24'1014.2
2018-Jan-21 17:47N 34°24' E 134°12'7512.8
2018-Jan-21 11:58N 34°02' E 132°46'613.7
2018-Jan-21 11:30N 33°57' E 132°42'1113.2
2018-Jan-21 10:42N 33°50' E 132°33'312.8
2018-Jan-21 10:30N 33°48' E 132°30'1113.1
2018-Jan-21 09:39N 33°44' E 132°18'1912.6
2018-Jan-21 08:09N 33°43' E 131°55'213.6
2018-Jan-21 08:00N 33°44' E 131°53'714.2
2018-Jan-21 07:30N 33°45' E 131°45'714.5
2018-Jan-21 07:00N 33°47' E 131°36'714.4
2018-Jan-21 06:31N 33°48' E 131°28'714.0
2018-Jan-21 06:00N 33°50' E 131°19'714.1
2018-Jan-21 05:30N 33°52' E 131°11'713.9
2018-Jan-21 05:00N 33°56' E 131°04'611.3
2018-Jan-21 04:30N 33°58' E 130°58'5 9.8
2018-Jan-21 04:00N 33°54' E 130°54'611.1
2018-Jan-21 03:30N 33°58' E 130°49'713.0
2018-Jan-21 03:00N 33°57' E 130°41'713.3
2018-Jan-21 02:30N 33°57' E 130°33'611.5
2018-Jan-21 02:00N 33°53' E 130°28'713.4
2018-Jan-21 01:30N 33°48' E 130°22'713.0
2018-Jan-21 01:00N 33°43' E 130°17'510.6
2018-Jan-21 00:30N 33°38' E 130°19'4 8.0
2018-Jan-21 00:00N 33°36' E 130°23'0 0.0
2018-Jan-20 23:30N 33°36' E 130°23'0 0.0
2018-Jan-20 23:00N 33°36' E 130°23'0 0.0
2018-Jan-20 22:31N 33°36' E 130°23'0 0.0
2018-Jan-20 22:00N 33°36' E 130°23'0 0.0
2018-Jan-20 21:30N 33°36' E 130°23'0 0.0
2018-Jan-20 21:00N 33°36' E 130°23'0 0.0
2018-Jan-20 20:30N 33°36' E 130°23'0 0.0
2018-Jan-20 20:00N 33°36' E 130°23'0 0.0
2018-Jan-20 19:30N 33°36' E 130°23'0 0.0
2018-Jan-20 19:00N 33°36' E 130°23'0 0.0
2018-Jan-20 18:31N 33°36' E 130°23'0 0.0
2018-Jan-20 18:00N 33°36' E 130°23'0 0.0
2018-Jan-20 17:30N 33°36' E 130°23'0 0.0
2018-Jan-20 17:01N 33°36' E 130°23'0 0.0
2018-Jan-20 16:30N 33°36' E 130°23'0 0.0
2018-Jan-20 16:00N 33°36' E 130°23'0 0.0
2018-Jan-20 15:30N 33°36' E 130°23'0 0.0
2018-Jan-20 15:00N 33°36' E 130°23'0 0.0
2018-Jan-20 14:30N 33°36' E 130°23'0 0.0
2018-Jan-20 14:00N 33°36' E 130°23'0 0.0
2018-Jan-20 13:30N 33°36' E 130°23'0 0.0
2018-Jan-20 13:00N 33°36' E 130°23'0 0.0
2018-Jan-20 12:30N 33°36' E 130°23'0 0.0
2018-Jan-20 12:00N 33°36' E 130°23'0 0.0
2018-Jan-20 11:30N 33°36' E 130°23'0 0.0
2018-Jan-20 11:00N 33°36' E 130°23'0 0.0
2018-Jan-20 10:30N 33°36' E 130°23'0 0.0
2018-Jan-20 10:01N 33°36' E 130°23'0 0.0
2018-Jan-20 09:30N 33°36' E 130°23'0 0.0
2018-Jan-20 09:00N 33°36' E 130°23'0 0.0
2018-Jan-20 08:30N 33°36' E 130°23'0 0.0
2018-Jan-20 08:00N 33°36' E 130°23'0 0.0
2018-Jan-20 07:30N 33°36' E 130°23'0 0.0
2018-Jan-20 07:01N 33°36' E 130°23'0 0.0
2018-Jan-20 06:30N 33°36' E 130°23'0 0.0
2018-Jan-20 06:00N 33°36' E 130°23'0 0.0
2018-Jan-20 05:31N 33°36' E 130°23'0 0.7
2018-Jan-20 05:00N 33°36' E 130°23'2 3.6
2018-Jan-20 04:30N 33°37' E 130°21'0 0.8
2018-Jan-20 04:00N 33°37' E 130°22'1 2.8
2018-Jan-20 03:30N 33°36' E 130°23'0 0.0
2018-Jan-20 03:00N 33°36' E 130°23'0 0.0
2018-Jan-20 02:31N 33°36' E 130°23'0 0.0
2018-Jan-20 02:00N 33°36' E 130°23'0 0.0
2018-Jan-20 01:30N 33°36' E 130°23'0 0.0
2018-Jan-20 01:00N 33°36' E 130°23'0 0.0
2018-Jan-20 00:30N 33°36' E 130°23'0 0.0
2018-Jan-20 00:01N 33°36' E 130°23'0 0.0
2018-Jan-19 23:30N 33°36' E 130°23'1 1.4
2018-Jan-19 23:01N 33°37' E 130°23'2 3.7
2018-Jan-19 22:30N 33°38' E 130°21'0 0.1
2018-Jan-19 22:01N 33°38' E 130°21'0 0.0
2018-Jan-19 21:30N 33°38' E 130°21'0 0.1
2018-Jan-19 21:01N 33°38' E 130°21'0 0.1
2018-Jan-19 20:30N 33°38' E 130°21'0 0.0
2018-Jan-19 20:00N 33°38' E 130°21'0 0.0
2018-Jan-19 19:30N 33°38' E 130°21'0 0.0
2018-Jan-19 19:01N 33°38' E 130°21'0 0.0
2018-Jan-19 18:30N 33°38' E 130°21'0 0.0
2018-Jan-19 18:00N 33°38' E 130°21'0 0.0
2018-Jan-19 17:30N 33°38' E 130°21'0 0.0
2018-Jan-19 17:01N 33°38' E 130°21'0 0.0
2018-Jan-19 16:30N 33°38' E 130°21'4 7.8
2018-Jan-19 16:00N 33°40' E 130°17'611.3
2018-Jan-19 15:31N 33°45' E 130°18'612.3
2018-Jan-19 15:01N 33°51' E 130°21'612.2
2018-Jan-19 14:31N 33°56' E 130°25'612.3
2018-Jan-19 14:00N 33°58' E 130°32'612.6
2018-Jan-19 13:30N 34°01' E 130°39'612.6
2018-Jan-19 13:00N 34°02' E 130°46'611.1
2018-Jan-19 12:29N 33°58' E 130°51'5 9.8
2018-Jan-19 12:01N 33°56' E 130°56'611.2
2018-Jan-19 11:30N 33°58' E 131°02'713.1
2018-Jan-19 11:00N 33°54' E 131°08'713.5
2018-Jan-19 10:30N 33°51' E 131°16'713.5
2018-Jan-19 10:00N 33°50' E 131°24'713.7
2018-Jan-19 09:30N 33°48' E 131°32'2513.2
2018-Jan-19 07:37N 33°46' E 132°01'213.8
2018-Jan-19 07:28N 33°46' E 132°04'1613.4
2018-Jan-19 06:15N 33°51' E 132°23'514.3
2018-Jan-19 05:55N 33°54' E 132°27'614.5
2018-Jan-19 05:30N 33°59' E 132°32'612.1
2018-Jan-19 05:00N 34°03' E 132°26'613.0
2018-Jan-19 04:31N 34°07' E 132°21'612.7
2018-Jan-19 04:00N 34°12' E 132°15'1 1.2
2018-Jan-19 03:30N 34°12' E 132°15'0 0.0
2018-Jan-19 03:01N 34°12' E 132°15'0 0.0
2018-Jan-19 02:31N 34°12' E 132°15'0 0.0
2018-Jan-19 01:59N 34°12' E 132°15'0 0.0
2018-Jan-19 01:31N 34°12' E 132°15'0 0.0
2018-Jan-19 01:01N 34°12' E 132°15'0 0.0
2018-Jan-19 00:30N 34°12' E 132°15'0 0.0
2018-Jan-19 00:00N 34°12' E 132°15'0 0.0
2018-Jan-18 23:30N 34°12' E 132°15'0 0.5
2018-Jan-18 23:00N 34°12' E 132°15'2 3.3
2018-Jan-18 22:30N 34°14' E 132°14'0 0.0
2018-Jan-18 21:59N 34°14' E 132°14'0 0.0
2018-Jan-18 21:30N 34°14' E 132°14'0 0.0
2018-Jan-18 21:00N 34°14' E 132°14'0 0.0
2018-Jan-18 20:31N 34°14' E 132°14'0 0.0
2018-Jan-18 20:00N 34°14' E 132°14'0 0.0
2018-Jan-18 19:31N 34°14' E 132°14'0 0.0
2018-Jan-18 19:00N 34°14' E 132°14'0 0.0
2018-Jan-18 18:30N 34°14' E 132°14'0 0.0
2018-Jan-18 17:59N 34°14' E 132°14'0 0.0
2018-Jan-18 17:30N 34°14' E 132°14'0 0.0
2018-Jan-18 17:00N 34°14' E 132°14'0 0.0
2018-Jan-18 16:30N 34°14' E 132°14'0 0.0
2018-Jan-18 16:01N 34°14' E 132°14'0 0.0
2018-Jan-18 15:31N 34°14' E 132°14'0 0.0
2018-Jan-18 14:59N 34°14' E 132°14'0 0.0
2018-Jan-18 14:29N 34°14' E 132°14'0 0.0
2018-Jan-18 13:56N 34°14' E 132°14'0 0.0
2018-Jan-18 13:30N 34°14' E 132°14'0 0.0
2018-Jan-18 13:00N 34°14' E 132°14'0 0.0
2018-Jan-18 12:30N 34°14' E 132°14'0 0.0
2018-Jan-18 12:00N 34°14' E 132°14'0 0.0
2018-Jan-18 11:30N 34°14' E 132°14'0 0.0
2018-Jan-18 11:00N 34°14' E 132°14'0 0.0
2018-Jan-18 10:30N 34°14' E 132°14'0 0.0
2018-Jan-18 10:00N 34°14' E 132°14'0 0.0
2018-Jan-18 09:28N 34°14' E 132°14'0 0.0
2018-Jan-18 09:00N 34°14' E 132°14'0 0.0
2018-Jan-18 08:30N 34°14' E 132°14'0 0.0
2018-Jan-18 08:00N 34°14' E 132°14'0 0.0
2018-Jan-18 07:30N 34°14' E 132°14'0 0.0
2018-Jan-18 06:58N 34°14' E 132°14'0 0.0
2018-Jan-18 06:30N 34°14' E 132°14'0 0.0
2018-Jan-18 06:00N 34°14' E 132°14'0 0.0
2018-Jan-18 05:28N 34°14' E 132°14'0 0.0
2018-Jan-18 04:59N 34°14' E 132°14'0 0.0
2018-Jan-18 04:29N 34°14' E 132°14'0 0.0
2018-Jan-18 04:00N 34°14' E 132°14'0 0.0
2018-Jan-18 03:30N 34°14' E 132°14'0 0.0
2018-Jan-18 03:00N 34°14' E 132°14'0 0.0
2018-Jan-18 02:30N 34°14' E 132°14'0 0.0
2018-Jan-18 02:00N 34°14' E 132°14'0 0.0
2018-Jan-18 01:30N 34°14' E 132°14'0 0.0
2018-Jan-18 01:00N 34°14' E 132°14'0 0.0
2018-Jan-17 23:58N 34°14' E 132°14'0 0.0
2018-Jan-17 23:57N 34°14' E 132°14'  
Track history (hours):
 
Tides and Currents Weather Stations Pressure Air Temp Water Temp Dewpoint Dewpoint Depression Visibility Wind Speed Wind Dir Waves Ship Positions

Naniwamaru No.23

Last reported at 2018-Jan-22 17:57 UTC. Time now 2018-Jan-22 18:04 UTC.
Position N 33°48' E 132°28'.

Length 71 m; draft 4 m.

Type: Tanker. MMSI: 431301706.

Date/timePositionNaut miles runAvg speedWind from/ knotsBaromVisibWave heightAir tempDewpointWater temp
2018-Jan-22 17:57N 33°48' E 132°28'613.1
2018-Jan-22 17:28N 33°52' E 132°34'9611.4
2018-Jan-22 09:01N 34°25' E 134°23'012.7
2018-Jan-22 08:59N 34°25' E 134°23'612.7
2018-Jan-22 08:30N 34°28' E 134°30'612.5
2018-Jan-22 08:00N 34°30' E 134°37'612.5
2018-Jan-22 07:30N 34°32' E 134°44'612.7
2018-Jan-22 07:00N 34°35' E 134°51'612.1
2018-Jan-22 06:30N 34°37' E 134°58'611.2
2018-Jan-22 06:00N 34°35' E 135°04'612.2
2018-Jan-22 05:30N 34°29' E 135°04'612.9
2018-Jan-22 05:00N 34°23' E 135°02'612.9
2018-Jan-22 04:31N 34°17' E 134°59'612.7
2018-Jan-22 04:01N 34°12' E 135°03'611.5
2018-Jan-22 03:30N 34°07' E 135°07'0 0.2
2018-Jan-22 03:00N 34°07' E 135°07'0 0.0
2018-Jan-22 02:29N 34°07' E 135°07'0 0.0
2018-Jan-22 01:57N 34°07' E 135°07'0 0.0
2018-Jan-22 01:30N 34°07' E 135°07'0 0.0
2018-Jan-22 01:00N 34°07' E 135°07'0 0.3
2018-Jan-22 00:30N 34°07' E 135°07'2 3.4
2018-Jan-22 00:01N 34°08' E 135°06'0 0.0
2018-Jan-21 23:31N 34°08' E 135°06'0 0.0
2018-Jan-21 23:00N 34°08' E 135°06'0 0.0
2018-Jan-21 22:31N 34°08' E 135°06'0 0.0
2018-Jan-21 22:01N 34°08' E 135°06'0 0.1
2018-Jan-21 21:31N 34°08' E 135°06'5 9.8
2018-Jan-21 21:00N 34°08' E 135°00'713.2
2018-Jan-21 20:30N 34°08' E 134°52'713.4
2018-Jan-21 20:00N 34°10' E 134°44'714.0
2018-Jan-21 19:30N 34°15' E 134°39'713.2
2018-Jan-21 19:00N 34°18' E 134°31'713.8
2018-Jan-21 18:30N 34°20' E 134°24'1014.2
2018-Jan-21 17:47N 34°24' E 134°12'7512.8
2018-Jan-21 11:58N 34°02' E 132°46'613.7
2018-Jan-21 11:30N 33°57' E 132°42'1113.2
2018-Jan-21 10:42N 33°50' E 132°33'312.8
2018-Jan-21 10:30N 33°48' E 132°30'1113.1
2018-Jan-21 09:39N 33°44' E 132°18'1912.6
2018-Jan-21 08:09N 33°43' E 131°55'213.6
2018-Jan-21 08:00N 33°44' E 131°53'714.2
2018-Jan-21 07:30N 33°45' E 131°45'714.5
2018-Jan-21 07:00N 33°47' E 131°36'714.4
2018-Jan-21 06:31N 33°48' E 131°28'714.0
2018-Jan-21 06:00N 33°50' E 131°19'714.1
2018-Jan-21 05:30N 33°52' E 131°11'713.9
2018-Jan-21 05:00N 33°56' E 131°04'611.3
2018-Jan-21 04:30N 33°58' E 130°58'5 9.8
2018-Jan-21 04:00N 33°54' E 130°54'611.1
2018-Jan-21 03:30N 33°58' E 130°49'713.0
2018-Jan-21 03:00N 33°57' E 130°41'713.3
2018-Jan-21 02:30N 33°57' E 130°33'611.5
2018-Jan-21 02:00N 33°53' E 130°28'713.4
2018-Jan-21 01:30N 33°48' E 130°22'713.0
2018-Jan-21 01:00N 33°43' E 130°17'510.6
2018-Jan-21 00:30N 33°38' E 130°19'4 8.0
2018-Jan-21 00:00N 33°36' E 130°23'0 0.0
2018-Jan-20 23:30N 33°36' E 130°23'0 0.0
2018-Jan-20 23:00N 33°36' E 130°23'0 0.0
2018-Jan-20 22:31N 33°36' E 130°23'0 0.0
2018-Jan-20 22:00N 33°36' E 130°23'0 0.0
2018-Jan-20 21:30N 33°36' E 130°23'0 0.0
2018-Jan-20 21:00N 33°36' E 130°23'0 0.0
2018-Jan-20 20:30N 33°36' E 130°23'0 0.0
2018-Jan-20 20:00N 33°36' E 130°23'0 0.0
2018-Jan-20 19:30N 33°36' E 130°23'0 0.0
2018-Jan-20 19:00N 33°36' E 130°23'0 0.0
2018-Jan-20 18:31N 33°36' E 130°23'0 0.0
2018-Jan-20 18:00N 33°36' E 130°23'0 0.0
2018-Jan-20 17:30N 33°36' E 130°23'0 0.0
2018-Jan-20 17:01N 33°36' E 130°23'0 0.0
2018-Jan-20 16:30N 33°36' E 130°23'0 0.0
2018-Jan-20 16:00N 33°36' E 130°23'0 0.0
2018-Jan-20 15:30N 33°36' E 130°23'0 0.0
2018-Jan-20 15:00N 33°36' E 130°23'0 0.0
2018-Jan-20 14:30N 33°36' E 130°23'0 0.0
2018-Jan-20 14:00N 33°36' E 130°23'0 0.0
2018-Jan-20 13:30N 33°36' E 130°23'0 0.0
2018-Jan-20 13:00N 33°36' E 130°23'0 0.0
2018-Jan-20 12:30N 33°36' E 130°23'0 0.0
2018-Jan-20 12:00N 33°36' E 130°23'0 0.0
2018-Jan-20 11:30N 33°36' E 130°23'0 0.0
2018-Jan-20 11:00N 33°36' E 130°23'0 0.0
2018-Jan-20 10:30N 33°36' E 130°23'0 0.0
2018-Jan-20 10:01N 33°36' E 130°23'0 0.0
2018-Jan-20 09:30N 33°36' E 130°23'0 0.0
2018-Jan-20 09:00N 33°36' E 130°23'0 0.0
2018-Jan-20 08:30N 33°36' E 130°23'0 0.0
2018-Jan-20 08:00N 33°36' E 130°23'0 0.0
2018-Jan-20 07:30N 33°36' E 130°23'0 0.0
2018-Jan-20 07:01N 33°36' E 130°23'0 0.0
2018-Jan-20 06:30N 33°36' E 130°23'0 0.0
2018-Jan-20 06:00N 33°36' E 130°23'0 0.0
2018-Jan-20 05:31N 33°36' E 130°23'0 0.7
2018-Jan-20 05:00N 33°36' E 130°23'2 3.6
2018-Jan-20 04:30N 33°37' E 130°21'0 0.8
2018-Jan-20 04:00N 33°37' E 130°22'1 2.8
2018-Jan-20 03:30N 33°36' E 130°23'0 0.0
2018-Jan-20 03:00N 33°36' E 130°23'0 0.0
2018-Jan-20 02:31N 33°36' E 130°23'0 0.0
2018-Jan-20 02:00N 33°36' E 130°23'0 0.0
2018-Jan-20 01:30N 33°36' E 130°23'0 0.0
2018-Jan-20 01:00N 33°36' E 130°23'0 0.0
2018-Jan-20 00:30N 33°36' E 130°23'0 0.0
2018-Jan-20 00:01N 33°36' E 130°23'0 0.0
2018-Jan-19 23:30N 33°36' E 130°23'1 1.4
2018-Jan-19 23:01N 33°37' E 130°23'2 3.7
2018-Jan-19 22:30N 33°38' E 130°21'0 0.1
2018-Jan-19 22:01N 33°38' E 130°21'0 0.0
2018-Jan-19 21:30N 33°38' E 130°21'0 0.1
2018-Jan-19 21:01N 33°38' E 130°21'0 0.1
2018-Jan-19 20:30N 33°38' E 130°21'0 0.0
2018-Jan-19 20:00N 33°38' E 130°21'0 0.0
2018-Jan-19 19:30N 33°38' E 130°21'0 0.0
2018-Jan-19 19:01N 33°38' E 130°21'0 0.0
2018-Jan-19 18:30N 33°38' E 130°21'0 0.0
2018-Jan-19 18:00N 33°38' E 130°21'0 0.0
2018-Jan-19 17:30N 33°38' E 130°21'0 0.0
2018-Jan-19 17:01N 33°38' E 130°21'0 0.0
2018-Jan-19 16:30N 33°38' E 130°21'4 7.8
2018-Jan-19 16:00N 33°40' E 130°17'611.3
2018-Jan-19 15:31N 33°45' E 130°18'612.3
2018-Jan-19 15:01N 33°51' E 130°21'612.2
2018-Jan-19 14:31N 33°56' E 130°25'612.3
2018-Jan-19 14:00N 33°58' E 130°32'612.6
2018-Jan-19 13:30N 34°01' E 130°39'612.6
2018-Jan-19 13:00N 34°02' E 130°46'611.1
2018-Jan-19 12:29N 33°58' E 130°51'5 9.8
2018-Jan-19 12:01N 33°56' E 130°56'611.2
2018-Jan-19 11:30N 33°58' E 131°02'713.1
2018-Jan-19 11:00N 33°54' E 131°08'713.5
2018-Jan-19 10:30N 33°51' E 131°16'713.5
2018-Jan-19 10:00N 33°50' E 131°24'713.7
2018-Jan-19 09:30N 33°48' E 131°32'2513.2
2018-Jan-19 07:37N 33°46' E 132°01'213.8
2018-Jan-19 07:28N 33°46' E 132°04'1613.4
2018-Jan-19 06:15N 33°51' E 132°23'514.3
2018-Jan-19 05:55N 33°54' E 132°27'614.5
2018-Jan-19 05:30N 33°59' E 132°32'612.1
2018-Jan-19 05:00N 34°03' E 132°26'613.0
2018-Jan-19 04:31N 34°07' E 132°21'612.7
2018-Jan-19 04:00N 34°12' E 132°15'1 1.2
2018-Jan-19 03:30N 34°12' E 132°15'0 0.0
2018-Jan-19 03:01N 34°12' E 132°15'0 0.0
2018-Jan-19 02:31N 34°12' E 132°15'0 0.0
2018-Jan-19 01:59N 34°12' E 132°15'0 0.0
2018-Jan-19 01:31N 34°12' E 132°15'0 0.0
2018-Jan-19 01:01N 34°12' E 132°15'0 0.0
2018-Jan-19 00:30N 34°12' E 132°15'0 0.0
2018-Jan-19 00:00N 34°12' E 132°15'0 0.0
2018-Jan-18 23:30N 34°12' E 132°15'0 0.5
2018-Jan-18 23:00N 34°12' E 132°15'2 3.3
2018-Jan-18 22:30N 34°14' E 132°14'0 0.0
2018-Jan-18 21:59N 34°14' E 132°14'0 0.0
2018-Jan-18 21:30N 34°14' E 132°14'0 0.0
2018-Jan-18 21:00N 34°14' E 132°14'0 0.0
2018-Jan-18 20:31N 34°14' E 132°14'0 0.0
2018-Jan-18 20:00N 34°14' E 132°14'0 0.0
2018-Jan-18 19:31N 34°14' E 132°14'0 0.0
2018-Jan-18 19:00N 34°14' E 132°14'0 0.0
2018-Jan-18 18:30N 34°14' E 132°14'0 0.0
2018-Jan-18 17:59N 34°14' E 132°14'0 0.0
2018-Jan-18 17:30N 34°14' E 132°14'0 0.0
2018-Jan-18 17:00N 34°14' E 132°14'0 0.0
2018-Jan-18 16:30N 34°14' E 132°14'0 0.0
2018-Jan-18 16:01N 34°14' E 132°14'0 0.0
2018-Jan-18 15:31N 34°14' E 132°14'0 0.0
2018-Jan-18 14:59N 34°14' E 132°14'0 0.0
2018-Jan-18 14:29N 34°14' E 132°14'0 0.0
2018-Jan-18 13:56N 34°14' E 132°14'0 0.0
2018-Jan-18 13:30N 34°14' E 132°14'0 0.0
2018-Jan-18 13:00N 34°14' E 132°14'0 0.0
2018-Jan-18 12:30N 34°14' E 132°14'0 0.0
2018-Jan-18 12:00N 34°14' E 132°14'0 0.0
2018-Jan-18 11:30N 34°14' E 132°14'0 0.0
2018-Jan-18 11:00N 34°14' E 132°14'0 0.0
2018-Jan-18 10:30N 34°14' E 132°14'0 0.0
2018-Jan-18 10:00N 34°14' E 132°14'0 0.0
2018-Jan-18 09:28N 34°14' E 132°14'0 0.0
2018-Jan-18 09:00N 34°14' E 132°14'0 0.0
2018-Jan-18 08:30N 34°14' E 132°14'0 0.0
2018-Jan-18 08:00N 34°14' E 132°14'0 0.0
2018-Jan-18 07:30N 34°14' E 132°14'0 0.0
2018-Jan-18 06:58N 34°14' E 132°14'0 0.0
2018-Jan-18 06:30N 34°14' E 132°14'0 0.0
2018-Jan-18 06:00N 34°14' E 132°14'0 0.0
2018-Jan-18 05:28N 34°14' E 132°14'0 0.0
2018-Jan-18 04:59N 34°14' E 132°14'0 0.0
2018-Jan-18 04:29N 34°14' E 132°14'0 0.0
2018-Jan-18 04:00N 34°14' E 132°14'0 0.0
2018-Jan-18 03:30N 34°14' E 132°14'0 0.0
2018-Jan-18 03:00N 34°14' E 132°14'0 0.0
2018-Jan-18 02:30N 34°14' E 132°14'0 0.0
2018-Jan-18 02:00N 34°14' E 132°14'0 0.0
2018-Jan-18 01:30N 34°14' E 132°14'0 0.0
2018-Jan-18 01:00N 34°14' E 132°14'0 0.0
2018-Jan-17 23:58N 34°14' E 132°14'0 0.0
2018-Jan-17 23:57N 34°14' E 132°14'  

Dump ship's entire track history